sensor_id;sensor_type;location;lat;lon;timestamp;pressure;altitude;pressure_sealevel;temperature;humidity
40692;BME280;26377;53.344;14.886;2022-08-07T00:00:01;102427.42;;;11.37;58.11
40692;BME280;26377;53.344;14.886;2022-08-07T00:02:32;102423.11;;;11.33;58.20
40692;BME280;26377;53.344;14.886;2022-08-07T00:05:02;102420.97;;;11.31;58.24
40692;BME280;26377;53.344;14.886;2022-08-07T00:07:30;102421.41;;;11.31;58.32
40692;BME280;26377;53.344;14.886;2022-08-07T00:09:58;102422.38;;;11.28;58.37
40692;BME280;26377;53.344;14.886;2022-08-07T00:12:25;102421.09;;;11.27;58.44
40692;BME280;26377;53.344;14.886;2022-08-07T00:14:54;102421.56;;;11.26;58.54
40692;BME280;26377;53.344;14.886;2022-08-07T00:17:21;102419.39;;;11.24;58.60
40692;BME280;26377;53.344;14.886;2022-08-07T00:19:49;102419.87;;;11.24;58.68
40692;BME280;26377;53.344;14.886;2022-08-07T00:22:18;102426.06;;;11.23;58.76
40692;BME280;26377;53.344;14.886;2022-08-07T00:24:45;102422.59;;;11.21;58.82
40692;BME280;26377;53.344;14.886;2022-08-07T00:27:13;102419.16;;;11.17;58.87
40692;BME280;26377;53.344;14.886;2022-08-07T00:29:41;102422.78;;;11.15;59.00
40692;BME280;26377;53.344;14.886;2022-08-07T00:32:09;102420.64;;;11.11;59.06
40692;BME280;26377;53.344;14.886;2022-08-07T00:34:39;102419.46;;;11.07;59.18
40692;BME280;26377;53.344;14.886;2022-08-07T00:37:07;102424.37;;;11.06;59.24
40692;BME280;26377;53.344;14.886;2022-08-07T00:39:35;102425.69;;;11.06;59.29
40692;BME280;26377;53.344;14.886;2022-08-07T00:42:05;102423.92;;;11.05;59.38
40692;BME280;26377;53.344;14.886;2022-08-07T00:44:34;102420.02;;;11.03;59.47
40692;BME280;26377;53.344;14.886;2022-08-07T00:47:05;102421.78;;;11.03;59.54
40692;BME280;26377;53.344;14.886;2022-08-07T00:49:34;102421.34;;;11.03;59.60
40692;BME280;26377;53.344;14.886;2022-08-07T00:52:07;102418.24;;;11.02;59.68
40692;BME280;26377;53.344;14.886;2022-08-07T00:54:35;102419.57;;;11.02;59.71
40692;BME280;26377;53.344;14.886;2022-08-07T00:57:03;102420.08;;;11.00;59.72
40692;BME280;26377;53.344;14.886;2022-08-07T00:59:32;102418.83;;;10.97;59.76
40692;BME280;26377;53.344;14.886;2022-08-07T01:02:00;102414.91;;;10.96;59.81
40692;BME280;26377;53.344;14.886;2022-08-07T01:04:28;102415.84;;;10.93;59.87
40692;BME280;26377;53.344;14.886;2022-08-07T01:06:57;102422.07;;;10.92;59.88
40692;BME280;26377;53.344;14.886;2022-08-07T01:09:26;102419.92;;;10.90;59.90
40692;BME280;26377;53.344;14.886;2022-08-07T01:11:54;102421.29;;;10.89;59.92
40692;BME280;26377;53.344;14.886;2022-08-07T01:14:24;102420.51;;;10.85;59.99
40692;BME280;26377;53.344;14.886;2022-08-07T01:16:52;102420.55;;;10.84;60.05
40692;BME280;26377;53.344;14.886;2022-08-07T01:19:22;102415.23;;;10.84;60.16
40692;BME280;26377;53.344;14.886;2022-08-07T01:21:54;102420.98;;;10.83;60.19
40692;BME280;26377;53.344;14.886;2022-08-07T01:24:23;102419.22;;;10.84;60.24
40692;BME280;26377;53.344;14.886;2022-08-07T01:26:53;102420.58;;;10.82;60.28
40692;BME280;26377;53.344;14.886;2022-08-07T01:29:22;102420.17;;;10.81;60.33
40692;BME280;26377;53.344;14.886;2022-08-07T01:31:52;102420.61;;;10.81;60.40
40692;BME280;26377;53.344;14.886;2022-08-07T01:34:21;102419.25;;;10.82;60.54
40692;BME280;26377;53.344;14.886;2022-08-07T01:36:49;102418.33;;;10.83;60.60
40692;BME280;26377;53.344;14.886;2022-08-07T01:39:19;102416.52;;;10.85;60.68
40692;BME280;26377;53.344;14.886;2022-08-07T01:41:49;102418.70;;;10.86;60.69
40692;BME280;26377;53.344;14.886;2022-08-07T01:44:18;102414.28;;;10.86;60.84
40692;BME280;26377;53.344;14.886;2022-08-07T01:46:46;102414.24;;;10.88;61.03
40692;BME280;26377;53.344;14.886;2022-08-07T01:49:13;102413.77;;;10.88;61.13
40692;BME280;26377;53.344;14.886;2022-08-07T01:51:45;102413.33;;;10.89;61.26
40692;BME280;26377;53.344;14.886;2022-08-07T01:54:17;102415.06;;;10.90;61.36
40692;BME280;26377;53.344;14.886;2022-08-07T01:56:56;102415.02;;;10.91;61.38
40692;BME280;26377;53.344;14.886;2022-08-07T01:59:45;102414.10;;;10.92;61.49
40692;BME280;26377;53.344;14.886;2022-08-07T02:02:33;102420.30;;;10.93;61.66
40692;BME280;26377;53.344;14.886;2022-08-07T02:05:10;102418.94;;;10.94;61.73
40692;BME280;26377;53.344;14.886;2022-08-07T02:07:49;102422.95;;;10.93;61.72
40692;BME280;26377;53.344;14.886;2022-08-07T02:10:22;102423.43;;;10.91;61.67
40692;BME280;26377;53.344;14.886;2022-08-07T02:12:53;102420.00;;;10.87;61.70
40692;BME280;26377;53.344;14.886;2022-08-07T02:15:25;102421.84;;;10.85;61.67
40692;BME280;26377;53.344;14.886;2022-08-07T02:17:55;102421.02;;;10.82;61.64
40692;BME280;26377;53.344;14.886;2022-08-07T02:20:24;102418.91;;;10.78;61.68
40692;BME280;26377;53.344;14.886;2022-08-07T02:23:02;102412.31;;;10.77;61.75
40692;BME280;26377;53.344;14.886;2022-08-07T02:25:33;102410.61;;;10.74;61.73
40692;BME280;26377;53.344;14.886;2022-08-07T02:28:05;102415.98;;;10.73;61.78
40692;BME280;26377;53.344;14.886;2022-08-07T02:30:35;102411.56;;;10.72;61.84
40692;BME280;26377;53.344;14.886;2022-08-07T02:33:04;102411.12;;;10.72;61.93
40692;BME280;26377;53.344;14.886;2022-08-07T02:35:35;102413.37;;;10.71;62.02
40692;BME280;26377;53.344;14.886;2022-08-07T02:38:07;102416.06;;;10.70;62.00
40692;BME280;26377;53.344;14.886;2022-08-07T02:40:37;102411.23;;;10.68;62.04
40692;BME280;26377;53.344;14.886;2022-08-07T02:43:08;102412.66;;;10.65;62.09
40692;BME280;26377;53.344;14.886;2022-08-07T02:45:38;102408.75;;;10.62;62.15
40692;BME280;26377;53.344;14.886;2022-08-07T02:48:06;102410.55;;;10.61;62.24
40692;BME280;26377;53.344;14.886;2022-08-07T02:50:38;102408.78;;;10.60;62.26
40692;BME280;26377;53.344;14.886;2022-08-07T02:53:14;102410.11;;;10.60;62.28
40692;BME280;26377;53.344;14.886;2022-08-07T02:55:44;102414.13;;;10.59;62.35
40692;BME280;26377;53.344;14.886;2022-08-07T02:58:16;102413.71;;;10.58;62.40
40692;BME280;26377;53.344;14.886;2022-08-07T03:00:44;102414.56;;;10.60;62.52
40692;BME280;26377;53.344;14.886;2022-08-07T03:03:17;102415.08;;;10.56;62.46
40692;BME280;26377;53.344;14.886;2022-08-07T03:05:46;102412.48;;;10.55;62.48
40692;BME280;26377;53.344;14.886;2022-08-07T03:08:17;102415.17;;;10.53;62.47
40692;BME280;26377;53.344;14.886;2022-08-07T03:10:46;102414.29;;;10.53;62.51
40692;BME280;26377;53.344;14.886;2022-08-07T03:13:17;102414.77;;;10.52;62.61
40692;BME280;26377;53.344;14.886;2022-08-07T03:15:50;102416.02;;;10.54;62.69
40692;BME280;26377;53.344;14.886;2022-08-07T03:18:19;102414.25;;;10.54;62.77
40692;BME280;26377;53.344;14.886;2022-08-07T03:20:48;102417.32;;;10.55;62.78
40692;BME280;26377;53.344;14.886;2022-08-07T03:23:17;102417.80;;;10.55;62.78
40692;BME280;26377;53.344;14.886;2022-08-07T03:25:47;102416.16;;;10.49;62.74
40692;BME280;26377;53.344;14.886;2022-08-07T03:28:18;102419.73;;;10.48;62.87
40692;BME280;26377;53.344;14.886;2022-08-07T03:30:47;102420.68;;;10.46;62.97
40692;BME280;26377;53.344;14.886;2022-08-07T03:33:16;102419.77;;;10.47;62.98
40692;BME280;26377;53.344;14.886;2022-08-07T03:35:47;102418.06;;;10.44;62.94
40692;BME280;26377;53.344;14.886;2022-08-07T03:38:19;102415.84;;;10.44;63.00
40692;BME280;26377;53.344;14.886;2022-08-07T03:40:49;102418.91;;;10.45;63.04
40692;BME280;26377;53.344;14.886;2022-08-07T03:43:17;102418.50;;;10.44;63.13
40692;BME280;26377;53.344;14.886;2022-08-07T03:45:47;102414.45;;;10.47;63.20
40692;BME280;26377;53.344;14.886;2022-08-07T03:48:17;102420.14;;;10.49;63.24
40692;BME280;26377;53.344;14.886;2022-08-07T03:50:45;102420.58;;;10.49;63.10
40692;BME280;26377;53.344;14.886;2022-08-07T03:53:14;102418.88;;;10.46;63.17
40692;BME280;26377;53.344;14.886;2022-08-07T03:55:43;102416.70;;;10.46;63.11
40692;BME280;26377;53.344;14.886;2022-08-07T03:58:11;102419.73;;;10.48;63.23
40692;BME280;26377;53.344;14.886;2022-08-07T04:00:40;102420.52;;;10.52;63.27
40692;BME280;26377;53.344;14.886;2022-08-07T04:03:09;102423.10;;;10.55;63.24
40692;BME280;26377;53.344;14.886;2022-08-07T04:05:37;102424.80;;;10.57;63.25
40692;BME280;26377;53.344;14.886;2022-08-07T04:08:10;102426.98;;;10.58;63.15
40692;BME280;26377;53.344;14.886;2022-08-07T04:10:39;102428.31;;;10.58;63.16
40692;BME280;26377;53.344;14.886;2022-08-07T04:13:11;102430.90;;;10.61;63.21
40692;BME280;26377;53.344;14.886;2022-08-07T04:15:40;102426.37;;;10.64;63.26
40692;BME280;26377;53.344;14.886;2022-08-07T04:18:11;102427.08;;;10.71;63.36
40692;BME280;26377;53.344;14.886;2022-08-07T04:20:41;102434.36;;;10.80;63.44
40692;BME280;26377;53.344;14.886;2022-08-07T04:23:09;102435.45;;;10.89;63.62
40692;BME280;26377;53.344;14.886;2022-08-07T04:25:40;102437.20;;;11.05;63.83
40692;BME280;26377;53.344;14.886;2022-08-07T04:28:10;102439.46;;;11.20;64.08
40692;BME280;26377;53.344;14.886;2022-08-07T04:30:38;102440.13;;;11.42;64.32
40692;BME280;26377;53.344;14.886;2022-08-07T04:33:10;102437.36;;;11.61;64.31
40692;BME280;26377;53.344;14.886;2022-08-07T04:35:40;102435.08;;;11.78;64.30
40692;BME280;26377;53.344;14.886;2022-08-07T04:38:12;102436.41;;;11.93;64.27
40692;BME280;26377;53.344;14.886;2022-08-07T04:40:45;102434.95;;;12.10;64.30
40692;BME280;26377;53.344;14.886;2022-08-07T04:43:15;102444.08;;;12.29;64.46
40692;BME280;26377;53.344;14.886;2022-08-07T04:52:02;102444.31;;;12.87;64.38
40692;BME280;26377;53.344;14.886;2022-08-07T04:55:03;102448.80;;;13.11;64.38
40692;BME280;26377;53.344;14.886;2022-08-07T05:00:39;102451.63;;;13.54;64.18
40692;BME280;26377;53.344;14.886;2022-08-07T05:06:39;102450.23;;;13.79;63.57
40692;BME280;26377;53.344;14.886;2022-08-07T05:11:58;102448.02;;;14.01;63.28
40692;BME280;26377;53.344;14.886;2022-08-07T05:14:37;102448.74;;;14.16;63.36
40692;BME280;26377;53.344;14.886;2022-08-07T05:17:09;102448.42;;;14.35;63.36
40692;BME280;26377;53.344;14.886;2022-08-07T05:19:46;102457.90;;;14.54;63.25
40692;BME280;26377;53.344;14.886;2022-08-07T05:22:16;102449.97;;;14.72;63.15
40692;BME280;26377;53.344;14.886;2022-08-07T05:24:47;102456.31;;;14.90;62.97
40692;BME280;26377;53.344;14.886;2022-08-07T05:27:19;102455.58;;;15.06;62.82
40692;BME280;26377;53.344;14.886;2022-08-07T05:29:49;102455.27;;;15.24;62.65
40692;BME280;26377;53.344;14.886;2022-08-07T05:32:19;102453.33;;;15.37;62.44
40692;BME280;26377;53.344;14.886;2022-08-07T05:34:50;102454.38;;;15.43;62.23
40692;BME280;26377;53.344;14.886;2022-08-07T05:37:19;102453.63;;;15.50;62.08
40692;BME280;26377;53.344;14.886;2022-08-07T05:39:51;102455.43;;;15.59;61.96
40692;BME280;26377;53.344;14.886;2022-08-07T05:42:21;102456.73;;;15.69;61.88
40692;BME280;26377;53.344;14.886;2022-08-07T05:44:51;102452.36;;;15.77;61.67
40692;BME280;26377;53.344;14.886;2022-08-07T05:47:21;102451.16;;;15.84;61.60
40692;BME280;26377;53.344;14.886;2022-08-07T05:49:51;102457.17;;;15.97;61.61
40692;BME280;26377;53.344;14.886;2022-08-07T05:52:20;102456.11;;;16.10;61.54
40692;BME280;26377;53.344;14.886;2022-08-07T05:54:49;102458.22;;;16.30;61.71
40692;BME280;26377;53.344;14.886;2022-08-07T05:57:20;102459.50;;;16.59;61.83
40692;BME280;26377;53.344;14.886;2022-08-07T05:59:50;102459.20;;;16.90;61.73
40692;BME280;26377;53.344;14.886;2022-08-07T06:02:20;102454.55;;;17.19;61.74
40692;BME280;26377;53.344;14.886;2022-08-07T06:04:52;102457.92;;;17.48;61.46
40692;BME280;26377;53.344;14.886;2022-08-07T06:07:21;102452.40;;;17.67;60.95
40692;BME280;26377;53.344;14.886;2022-08-07T06:09:50;102455.84;;;17.77;60.71
40692;BME280;26377;53.344;14.886;2022-08-07T06:12:22;102458.17;;;17.92;60.56
40692;BME280;26377;53.344;14.886;2022-08-07T06:14:52;102456.23;;;18.02;60.09
40692;BME280;26377;53.344;14.886;2022-08-07T06:17:22;102457.24;;;18.15;60.00
40692;BME280;26377;53.344;14.886;2022-08-07T06:19:50;102455.27;;;18.34;59.91
40692;BME280;26377;53.344;14.886;2022-08-07T06:22:21;102457.11;;;18.56;59.74
40692;BME280;26377;53.344;14.886;2022-08-07T06:24:51;102460.56;;;18.74;59.46
40692;BME280;26377;53.344;14.886;2022-08-07T06:27:22;102461.95;;;18.95;59.25
40692;BME280;26377;53.344;14.886;2022-08-07T06:29:53;102466.20;;;18.99;58.58
40692;BME280;26377;53.344;14.886;2022-08-07T06:32:22;102464.09;;;19.04;58.48
40692;BME280;26377;53.344;14.886;2022-08-07T06:34:52;102460.94;;;19.04;57.88
40692;BME280;26377;53.344;14.886;2022-08-07T06:37:19;102462.66;;;19.12;58.00
40692;BME280;26377;53.344;14.886;2022-08-07T06:39:47;102464.55;;;19.33;57.94
40692;BME280;26377;53.344;14.886;2022-08-07T06:42:21;102464.88;;;19.56;57.97
40692;BME280;26377;53.344;14.886;2022-08-07T06:45:17;102471.59;;;19.63;57.29
40692;BME280;26377;53.344;14.886;2022-08-07T06:47:50;102476.02;;;19.71;57.20
40692;BME280;26377;53.344;14.886;2022-08-07T06:50:22;102470.45;;;19.74;56.70
40692;BME280;26377;53.344;14.886;2022-08-07T06:52:53;102470.36;;;19.76;56.43
40692;BME280;26377;53.344;14.886;2022-08-07T06:55:28;102474.77;;;19.91;56.39
40692;BME280;26377;53.344;14.886;2022-08-07T06:58:06;102474.84;;;20.03;56.24
40692;BME280;26377;53.344;14.886;2022-08-07T07:00:40;102480.14;;;20.19;55.93
40692;BME280;26377;53.344;14.886;2022-08-07T07:03:11;102476.95;;;20.26;55.45
40692;BME280;26377;53.344;14.886;2022-08-07T07:05:43;102481.36;;;20.27;55.23
40692;BME280;26377;53.344;14.886;2022-08-07T07:08:13;102474.02;;;20.36;54.85
40692;BME280;26377;53.344;14.886;2022-08-07T07:10:41;102477.50;;;20.38;54.53
40692;BME280;26377;53.344;14.886;2022-08-07T07:13:16;102479.50;;;20.49;54.58
40692;BME280;26377;53.344;14.886;2022-08-07T07:15:54;102474.42;;;20.64;54.14
40692;BME280;26377;53.344;14.886;2022-08-07T07:18:33;102474.33;;;20.65;53.77
40692;BME280;26377;53.344;14.886;2022-08-07T07:21:09;102475.17;;;20.66;53.18
40692;BME280;26377;53.344;14.886;2022-08-07T07:23:40;102468.31;;;20.74;53.18
40692;BME280;26377;53.344;14.886;2022-08-07T07:26:13;102470.78;;;20.77;52.87
40692;BME280;26377;53.344;14.886;2022-08-07T07:28:58;102461.99;;;20.81;52.68
40692;BME280;26377;53.344;14.886;2022-08-07T07:34:05;102461.14;;;20.80;52.08
40692;BME280;26377;53.344;14.886;2022-08-07T07:36:32;102449.70;;;20.96;52.10
40692;BME280;26377;53.344;14.886;2022-08-07T07:39:02;102457.59;;;21.19;51.97
40692;BME280;26377;53.344;14.886;2022-08-07T07:41:48;102452.45;;;21.21;51.29
40692;BME280;26377;53.344;14.886;2022-08-07T07:44:19;102452.39;;;21.28;51.08
40692;BME280;26377;53.344;14.886;2022-08-07T07:46:50;102447.77;;;21.30;50.67
40692;BME280;26377;53.344;14.886;2022-08-07T07:49:21;102447.94;;;21.34;50.47
40692;BME280;26377;53.344;14.886;2022-08-07T07:51:55;102444.88;;;21.51;50.67
40692;BME280;26377;53.344;14.886;2022-08-07T07:54:23;102444.38;;;21.71;50.55
40692;BME280;26377;53.344;14.886;2022-08-07T07:56:54;102435.52;;;21.87;50.08
40692;BME280;26377;53.344;14.886;2022-08-07T07:59:24;102426.53;;;21.99;49.96
40692;BME280;26377;53.344;14.886;2022-08-07T08:01:55;102429.97;;;22.19;49.93
40692;BME280;26377;53.344;14.886;2022-08-07T08:04:28;102432.84;;;22.47;49.57
40692;BME280;26377;53.344;14.886;2022-08-07T08:06:59;102434.45;;;22.50;49.18
40692;BME280;26377;53.344;14.886;2022-08-07T08:09:28;102433.06;;;22.62;48.71
40692;BME280;26377;53.344;14.886;2022-08-07T08:12:00;102428.70;;;22.83;48.55
40692;BME280;26377;53.344;14.886;2022-08-07T08:14:31;102427.30;;;23.07;48.26
40692;BME280;26377;53.344;14.886;2022-08-07T08:17:01;102431.63;;;23.15;47.81
40692;BME280;26377;53.344;14.886;2022-08-07T08:19:30;102439.21;;;23.39;47.63
40692;BME280;26377;53.344;14.886;2022-08-07T08:22:00;102437.12;;;23.59;47.32
40692;BME280;26377;53.344;14.886;2022-08-07T08:24:48;102433.92;;;23.70;46.89
40692;BME280;26377;53.344;14.886;2022-08-07T08:27:37;102437.13;;;23.92;46.47
40692;BME280;26377;53.344;14.886;2022-08-07T08:30:10;102428.61;;;24.13;46.27
40692;BME280;26377;53.344;14.886;2022-08-07T08:32:45;102425.22;;;24.31;45.85
40692;BME280;26377;53.344;14.886;2022-08-07T08:35:22;102424.45;;;24.40;45.33
40692;BME280;26377;53.344;14.886;2022-08-07T08:37:56;102423.26;;;24.33;44.78
40692;BME280;26377;53.344;14.886;2022-08-07T08:40:30;102421.03;;;24.27;44.10
40692;BME280;26377;53.344;14.886;2022-08-07T08:45:54;102425.78;;;24.03;43.33
40692;BME280;26377;53.344;14.886;2022-08-07T08:54:01;102421.70;;;23.87;42.48
40692;BME280;26377;53.344;14.886;2022-08-07T08:56:33;102420.72;;;23.88;42.21
40692;BME280;26377;53.344;14.886;2022-08-07T08:59:18;102411.11;;;24.11;42.54
40692;BME280;26377;53.344;14.886;2022-08-07T09:05:50;102415.81;;;23.93;41.83
40692;BME280;26377;53.344;14.886;2022-08-07T09:11:38;102404.16;;;24.29;42.07
40692;BME280;26377;53.344;14.886;2022-08-07T09:14:13;102404.76;;;24.70;41.88
40692;BME280;26377;53.344;14.886;2022-08-07T09:17:09;102399.19;;;24.97;41.63
40692;BME280;26377;53.344;14.886;2022-08-07T09:20:04;102404.88;;;24.94;41.04
40692;BME280;26377;53.344;14.886;2022-08-07T09:25:52;102404.42;;;24.58;40.33
40692;BME280;26377;53.344;14.886;2022-08-07T09:28:39;102398.39;;;24.60;40.16
40692;BME280;26377;53.344;14.886;2022-08-07T09:34:33;102402.82;;;24.61;39.86
40692;BME280;26377;53.344;14.886;2022-08-07T09:40:23;102388.65;;;24.63;39.76
40692;BME280;26377;53.344;14.886;2022-08-07T09:43:06;102385.50;;;24.73;39.45
40692;BME280;26377;53.344;14.886;2022-08-07T09:54:52;102383.03;;;23.85;38.65
40692;BME280;26377;53.344;14.886;2022-08-07T10:00:36;102387.84;;;23.48;38.79
40692;BME280;26377;53.344;14.886;2022-08-07T10:03:29;102387.73;;;23.33;38.64
40692;BME280;26377;53.344;14.886;2022-08-07T10:09:28;102377.28;;;23.29;38.50
40692;BME280;26377;53.344;14.886;2022-08-07T10:30:07;102365.80;;;23.42;37.70
40692;BME280;26377;53.344;14.886;2022-08-07T10:36:12;102357.81;;;23.29;37.88
40692;BME280;26377;53.344;14.886;2022-08-07T10:41:54;102355.25;;;22.71;37.52
40692;BME280;26377;53.344;14.886;2022-08-07T10:44:42;102345.59;;;22.51;37.74
40692;BME280;26377;53.344;14.886;2022-08-07T10:47:22;102346.84;;;22.39;37.89
40692;BME280;26377;53.344;14.886;2022-08-07T10:55:17;102344.30;;;22.78;38.15
40692;BME280;26377;53.344;14.886;2022-08-07T10:58:25;102335.41;;;23.22;38.26
40692;BME280;26377;53.344;14.886;2022-08-07T11:00:56;102330.30;;;23.78;38.30
40692;BME280;26377;53.344;14.886;2022-08-07T11:03:35;102329.70;;;24.22;37.82
40692;BME280;26377;53.344;14.886;2022-08-07T11:06:28;102326.47;;;24.54;37.75
40692;BME280;26377;53.344;14.886;2022-08-07T11:09:12;102322.09;;;24.89;37.45
40692;BME280;26377;53.344;14.886;2022-08-07T11:11:54;102317.21;;;24.98;36.71
40692;BME280;26377;53.344;14.886;2022-08-07T11:14:46;102322.48;;;24.69;36.11
40692;BME280;26377;53.344;14.886;2022-08-07T11:17:23;102320.00;;;24.40;35.99
40692;BME280;26377;53.344;14.886;2022-08-07T11:20:20;102321.61;;;24.17;35.77
40692;BME280;26377;53.344;14.886;2022-08-07T11:23:00;102310.95;;;23.93;35.89
40692;BME280;26377;53.344;14.886;2022-08-07T11:25:50;102317.63;;;23.84;35.96
40692;BME280;26377;53.344;14.886;2022-08-07T11:28:35;102312.56;;;23.79;35.95
40692;BME280;26377;53.344;14.886;2022-08-07T11:31:31;102307.78;;;23.77;35.78
40692;BME280;26377;53.344;14.886;2022-08-07T11:36:58;102300.35;;;24.48;36.04
40692;BME280;26377;53.344;14.886;2022-08-07T11:43:11;102294.61;;;24.82;35.31
40692;BME280;26377;53.344;14.886;2022-08-07T11:46:26;102285.72;;;24.86;35.02
40692;BME280;26377;53.344;14.886;2022-08-07T11:52:12;102273.81;;;25.37;34.96
40692;BME280;26377;53.344;14.886;2022-08-07T11:55:29;102278.34;;;25.86;35.33
40692;BME280;26377;53.344;14.886;2022-08-07T12:04:44;102275.27;;;27.03;33.96
40692;BME280;26377;53.344;14.886;2022-08-07T12:07:36;102263.56;;;27.29;33.53
40692;BME280;26377;53.344;14.886;2022-08-07T12:12:50;102266.42;;;27.55;32.98
40692;BME280;26377;53.344;14.886;2022-08-07T12:15:22;102260.50;;;27.73;32.66
40692;BME280;26377;53.344;14.886;2022-08-07T12:17:57;102262.88;;;27.85;32.26
40692;BME280;26377;53.344;14.886;2022-08-07T12:24:05;102253.33;;;28.20;31.89
40692;BME280;26377;53.344;14.886;2022-08-07T12:26:53;102247.75;;;28.43;31.48
40692;BME280;26377;53.344;14.886;2022-08-07T12:29:34;102243.26;;;28.60;31.24
40692;BME280;26377;53.344;14.886;2022-08-07T12:34:50;102245.59;;;28.37;30.23
40692;BME280;26377;53.344;14.886;2022-08-07T12:37:19;102244.82;;;27.75;30.13
40692;BME280;26377;53.344;14.886;2022-08-07T12:42:32;102240.61;;;27.94;30.22
40692;BME280;26377;53.344;14.886;2022-08-07T12:45:11;102237.15;;;27.88;30.29
40692;BME280;26377;53.344;14.886;2022-08-07T12:47:58;102235.97;;;28.08;30.51
40692;BME280;26377;53.344;14.886;2022-08-07T12:50:48;102223.76;;;28.37;30.53
40692;BME280;26377;53.344;14.886;2022-08-07T12:56:37;102224.08;;;28.52;30.44
40692;BME280;26377;53.344;14.886;2022-08-07T12:59:10;102224.02;;;28.69;29.85
40692;BME280;26377;53.344;14.886;2022-08-07T13:05:08;102214.77;;;28.92;29.90
40692;BME280;26377;53.344;14.886;2022-08-07T13:14:18;102205.78;;;29.49;29.53
40692;BME280;26377;53.344;14.886;2022-08-07T13:19:59;102211.67;;;29.78;29.33
40692;BME280;26377;53.344;14.886;2022-08-07T13:22:40;102207.77;;;29.92;29.00
40692;BME280;26377;53.344;14.886;2022-08-07T13:25:17;102204.53;;;29.93;28.64
40692;BME280;26377;53.344;14.886;2022-08-07T13:27:50;102204.16;;;29.88;28.19
40692;BME280;26377;53.344;14.886;2022-08-07T13:30:21;102202.30;;;29.92;28.30
40692;BME280;26377;53.344;14.886;2022-08-07T13:33:08;102196.45;;;29.99;28.22
40692;BME280;26377;53.344;14.886;2022-08-07T13:36:02;102192.03;;;29.82;27.97
40692;BME280;26377;53.344;14.886;2022-08-07T13:38:46;102189.80;;;29.86;28.05
40692;BME280;26377;53.344;14.886;2022-08-07T13:41:33;102187.42;;;29.99;28.03
40692;BME280;26377;53.344;14.886;2022-08-07T13:44:04;102180.25;;;30.14;28.20
40692;BME280;26377;53.344;14.886;2022-08-07T13:46:35;102176.98;;;30.27;28.02
40692;BME280;26377;53.344;14.886;2022-08-07T13:49:06;102172.86;;;30.43;27.95
40692;BME280;26377;53.344;14.886;2022-08-07T13:51:37;102166.66;;;30.61;27.64
40692;BME280;26377;53.344;14.886;2022-08-07T13:54:08;102164.66;;;30.23;27.00
40692;BME280;26377;53.344;14.886;2022-08-07T13:56:39;102160.73;;;29.81;27.27
40692;BME280;26377;53.344;14.886;2022-08-07T13:59:19;102166.70;;;29.64;27.41
40692;BME280;26377;53.344;14.886;2022-08-07T14:01:51;102156.86;;;29.30;27.34
40692;BME280;26377;53.344;14.886;2022-08-07T14:04:24;102164.81;;;29.03;27.49
40692;BME280;26377;53.344;14.886;2022-08-07T14:06:53;102160.70;;;28.70;27.74
40692;BME280;26377;53.344;14.886;2022-08-07T14:09:23;102149.83;;;28.31;27.89
40692;BME280;26377;53.344;14.886;2022-08-07T14:11:55;102161.15;;;28.14;28.03
40692;BME280;26377;53.344;14.886;2022-08-07T14:14:41;102162.63;;;27.87;27.98
40692;BME280;26377;53.344;14.886;2022-08-07T14:17:15;102160.67;;;27.62;28.16
40692;BME280;26377;53.344;14.886;2022-08-07T14:19:58;102161.60;;;27.36;28.20
40692;BME280;26377;53.344;14.886;2022-08-07T14:22:31;102156.20;;;27.26;28.36
40692;BME280;26377;53.344;14.886;2022-08-07T14:25:17;102154.41;;;27.48;28.44
40692;BME280;26377;53.344;14.886;2022-08-07T14:27:45;102153.00;;;27.79;28.88
40692;BME280;26377;53.344;14.886;2022-08-07T14:30:16;102154.02;;;27.78;29.00
40692;BME280;26377;53.344;14.886;2022-08-07T14:32:53;102147.31;;;27.73;29.15
40692;BME280;26377;53.344;14.886;2022-08-07T14:35:27;102141.22;;;27.92;29.23
40692;BME280;26377;53.344;14.886;2022-08-07T14:37:58;102142.11;;;28.22;29.28
40692;BME280;26377;53.344;14.886;2022-08-07T14:40:27;102137.61;;;28.13;28.76
40692;BME280;26377;53.344;14.886;2022-08-07T14:48:12;102135.90;;;27.56;28.79
40692;BME280;26377;53.344;14.886;2022-08-07T14:50:52;102138.63;;;27.38;28.83
40692;BME280;26377;53.344;14.886;2022-08-07T14:53:23;102133.81;;;27.19;29.01
40692;BME280;26377;53.344;14.886;2022-08-07T14:55:54;102124.87;;;27.13;29.08
40692;BME280;26377;53.344;14.886;2022-08-07T14:58:27;102120.73;;;27.22;29.19
40692;BME280;26377;53.344;14.886;2022-08-07T15:00:58;102126.55;;;27.58;29.22
40692;BME280;26377;53.344;14.886;2022-08-07T15:03:28;102131.94;;;27.68;29.40
40692;BME280;26377;53.344;14.886;2022-08-07T15:05:58;102125.46;;;27.86;29.53
40692;BME280;26377;53.344;14.886;2022-08-07T15:08:35;102125.52;;;28.16;29.30
40692;BME280;26377;53.344;14.886;2022-08-07T15:11:09;102122.91;;;28.32;28.93
40692;BME280;26377;53.344;14.886;2022-08-07T15:13:53;102122.81;;;28.41;28.65
40692;BME280;26377;53.344;14.886;2022-08-07T15:16:34;102123.50;;;28.39;28.23
40692;BME280;26377;53.344;14.886;2022-08-07T15:19:10;102121.70;;;28.30;28.22
40692;BME280;26377;53.344;14.886;2022-08-07T15:21:48;102114.84;;;28.26;27.93
40692;BME280;26377;53.344;14.886;2022-08-07T15:24:23;102116.14;;;27.93;27.85
40692;BME280;26377;53.344;14.886;2022-08-07T15:26:58;102115.66;;;27.76;27.81
40692;BME280;26377;53.344;14.886;2022-08-07T15:29:36;102113.81;;;27.45;27.68
40692;BME280;26377;53.344;14.886;2022-08-07T15:32:03;102119.55;;;27.21;27.96